sensor_id;sensor_type;location;lat;lon;timestamp;pressure;altitude;pressure_sealevel;temperature;humidity
60087;BME280;45960;53.630;55.972;2022-08-19T00:00:11;101368.56;;;13.11;52.44
60087;BME280;45960;53.630;55.972;2022-08-19T00:01:14;101374.78;;;13.12;52.64
60087;BME280;45960;53.630;55.972;2022-08-19T00:02:15;101370.28;;;13.12;52.60
60087;BME280;45960;53.630;55.972;2022-08-19T00:03:16;101370.47;;;13.09;52.84
60087;BME280;45960;53.630;55.972;2022-08-19T00:04:18;101375.03;;;13.07;53.10
60087;BME280;45960;53.630;55.972;2022-08-19T00:05:19;101375.03;;;13.07;53.12
60087;BME280;45960;53.630;55.972;2022-08-19T00:06:20;101378.50;;;13.09;53.37
60087;BME280;45960;53.630;55.972;2022-08-19T00:07:21;101379.56;;;13.07;53.42
60087;BME280;45960;53.630;55.972;2022-08-19T00:08:22;101381.38;;;13.06;53.53
60087;BME280;45960;53.630;55.972;2022-08-19T00:09:23;101377.72;;;13.07;53.71
60087;BME280;45960;53.630;55.972;2022-08-19T00:10:24;101374.13;;;13.08;53.78
60087;BME280;45960;53.630;55.972;2022-08-19T00:11:25;101380.34;;;13.09;53.90
60087;BME280;45960;53.630;55.972;2022-08-19T00:12:28;101382.06;;;13.10;54.02
60087;BME280;45960;53.630;55.972;2022-08-19T00:13:29;101377.66;;;13.09;54.08
60087;BME280;45960;53.630;55.972;2022-08-19T00:14:30;101374.13;;;13.08;54.16
60087;BME280;45960;53.630;55.972;2022-08-19T00:15:31;101380.41;;;13.07;54.34
60087;BME280;45960;53.630;55.972;2022-08-19T00:16:33;101373.31;;;13.06;54.23
60087;BME280;45960;53.630;55.972;2022-08-19T00:17:33;101371.50;;;13.07;54.39
60087;BME280;45960;53.630;55.972;2022-08-19T00:18:34;101376.88;;;13.07;54.37
60087;BME280;45960;53.630;55.972;2022-08-19T00:19:35;101376.97;;;13.05;54.45
60087;BME280;45960;53.630;55.972;2022-08-19T00:20:36;101379.66;;;13.05;54.58
60087;BME280;45960;53.630;55.972;2022-08-19T00:21:40;101381.38;;;13.06;54.47
60087;BME280;45960;53.630;55.972;2022-08-19T00:22:41;101381.38;;;13.06;54.48
60087;BME280;45960;53.630;55.972;2022-08-19T00:23:43;101377.72;;;13.07;54.59
60087;BME280;45960;53.630;55.972;2022-08-19T00:24:44;101382.34;;;13.05;54.74
60087;BME280;45960;53.630;55.972;2022-08-19T00:25:45;101387.72;;;13.05;54.75
60087;BME280;45960;53.630;55.972;2022-08-19T00:26:46;101383.28;;;13.04;54.92
60087;BME280;45960;53.630;55.972;2022-08-19T00:27:47;101388.63;;;13.04;54.86
60087;BME280;45960;53.630;55.972;2022-08-19T00:28:48;101393.06;;;13.05;54.91
60087;BME280;45960;53.630;55.972;2022-08-19T00:29:49;101394.97;;;13.03;55.00
60087;BME280;45960;53.630;55.972;2022-08-19T00:30:50;101401.28;;;13.02;55.08
60087;BME280;45960;53.630;55.972;2022-08-19T00:31:52;101397.84;;;13.00;55.31
60087;BME280;45960;53.630;55.972;2022-08-19T00:32:57;101404.13;;;12.99;55.29
60087;BME280;45960;53.630;55.972;2022-08-19T00:33:58;101405.09;;;12.98;55.43
60087;BME280;45960;53.630;55.972;2022-08-19T00:34:59;101401.63;;;12.96;55.53
60087;BME280;45960;53.630;55.972;2022-08-19T00:36:00;101409.78;;;12.94;55.59
60087;BME280;45960;53.630;55.972;2022-08-19T00:37:01;101412.53;;;12.93;55.76
60087;BME280;45960;53.630;55.972;2022-08-19T00:38:02;101417.03;;;12.92;55.89
60087;BME280;45960;53.630;55.972;2022-08-19T00:39:03;101409.06;;;12.91;55.96
60087;BME280;45960;53.630;55.972;2022-08-19T00:40:05;101415.41;;;12.90;55.85
60087;BME280;45960;53.630;55.972;2022-08-19T00:41:07;101416.34;;;12.89;56.07
60087;BME280;45960;53.630;55.972;2022-08-19T00:42:09;101416.53;;;12.86;56.13
60087;BME280;45960;53.630;55.972;2022-08-19T00:43:10;101422.09;;;12.83;56.15
60087;BME280;45960;53.630;55.972;2022-08-19T00:44:15;101423.13;;;12.80;56.31
60087;BME280;45960;53.630;55.972;2022-08-19T00:45:17;101429.34;;;12.81;56.51
60087;BME280;45960;53.630;55.972;2022-08-19T00:46:19;101425.88;;;12.79;56.33
60087;BME280;45960;53.630;55.972;2022-08-19T00:47:21;101431.22;;;12.79;56.45
60087;BME280;45960;53.630;55.972;2022-08-19T00:48:21;101433.97;;;12.77;56.52
60087;BME280;45960;53.630;55.972;2022-08-19T00:49:37;101431.41;;;12.75;56.54
60087;BME280;45960;53.630;55.972;2022-08-19T00:50:41;101432.38;;;12.74;56.61
60087;BME280;45960;53.630;55.972;2022-08-19T00:51:44;101443.16;;;12.73;56.79
60087;BME280;45960;53.630;55.972;2022-08-19T00:52:47;101431.75;;;12.69;56.97
60087;BME280;45960;53.630;55.972;2022-08-19T00:53:49;101437.28;;;12.66;56.92
60087;BME280;45960;53.630;55.972;2022-08-19T00:54:50;101444.38;;;12.67;56.96
60087;BME280;45960;53.630;55.972;2022-08-19T00:55:52;101435.53;;;12.65;57.07
60087;BME280;45960;53.630;55.972;2022-08-19T00:56:54;101439.25;;;12.63;57.13
60087;BME280;45960;53.630;55.972;2022-08-19T00:57:58;101446.59;;;12.59;57.20
60087;BME280;45960;53.630;55.972;2022-08-19T00:59:00;101437.78;;;12.57;57.36
60087;BME280;45960;53.630;55.972;2022-08-19T01:00:04;101440.56;;;12.56;57.33
60087;BME280;45960;53.630;55.972;2022-08-19T01:01:06;101444.16;;;12.54;57.52
60087;BME280;45960;53.630;55.972;2022-08-19T01:02:08;101450.50;;;12.53;57.58
60087;BME280;45960;53.630;55.972;2022-08-19T01:03:10;101448.84;;;12.51;57.60
60087;BME280;45960;53.630;55.972;2022-08-19T01:04:13;101447.13;;;12.50;57.70
60087;BME280;45960;53.630;55.972;2022-08-19T01:05:16;101442.78;;;12.47;57.78
60087;BME280;45960;53.630;55.972;2022-08-19T01:06:19;101456.25;;;12.46;57.82
60087;BME280;45960;53.630;55.972;2022-08-19T01:07:19;101449.19;;;12.45;57.79
60087;BME280;45960;53.630;55.972;2022-08-19T01:08:21;101451.06;;;12.43;57.95
60087;BME280;45960;53.630;55.972;2022-08-19T01:09:22;101448.50;;;12.41;57.97
60087;BME280;45960;53.630;55.972;2022-08-19T01:10:25;101454.72;;;12.42;58.06
60087;BME280;45960;53.630;55.972;2022-08-19T01:11:27;101456.44;;;12.43;58.10
60087;BME280;45960;53.630;55.972;2022-08-19T01:12:29;101453.00;;;12.41;58.25
60087;BME280;45960;53.630;55.972;2022-08-19T01:13:32;101450.38;;;12.39;58.09
60087;BME280;45960;53.630;55.972;2022-08-19T01:14:33;101456.59;;;12.40;58.18
60087;BME280;45960;53.630;55.972;2022-08-19T01:15:38;101449.53;;;12.39;58.18
60087;BME280;45960;53.630;55.972;2022-08-19T01:16:41;101460.25;;;12.39;58.13
60087;BME280;45960;53.630;55.972;2022-08-19T01:17:42;101455.81;;;12.38;58.19
60087;BME280;45960;53.630;55.972;2022-08-19T01:18:44;101462.13;;;12.37;58.37
60087;BME280;45960;53.630;55.972;2022-08-19T01:19:45;101455.91;;;12.36;58.21
60087;BME280;45960;53.630;55.972;2022-08-19T01:20:47;101463.00;;;12.37;58.15
60087;BME280;45960;53.630;55.972;2022-08-19T01:21:52;101464.03;;;12.35;58.21
60087;BME280;45960;53.630;55.972;2022-08-19T01:22:57;101465.84;;;12.34;58.20
60087;BME280;45960;53.630;55.972;2022-08-19T01:23:58;101468.63;;;12.32;58.25
60087;BME280;45960;53.630;55.972;2022-08-19T01:24:59;101466.09;;;12.29;58.21
60087;BME280;45960;53.630;55.972;2022-08-19T01:26:01;101469.72;;;12.28;58.36
60087;BME280;45960;53.630;55.972;2022-08-19T01:27:03;101473.34;;;12.27;58.56
60087;BME280;45960;53.630;55.972;2022-08-19T01:28:05;101475.06;;;12.28;58.59
60087;BME280;45960;53.630;55.972;2022-08-19T01:29:06;101480.44;;;12.28;58.64
60087;BME280;45960;53.630;55.972;2022-08-19T01:30:09;101482.31;;;12.26;58.52
60087;BME280;45960;53.630;55.972;2022-08-19T01:31:13;101485.09;;;12.25;58.74
60087;BME280;45960;53.630;55.972;2022-08-19T01:32:15;101489.59;;;12.24;58.83
60087;BME280;45960;53.630;55.972;2022-08-19T01:33:17;101486.13;;;12.22;58.94
60087;BME280;45960;53.630;55.972;2022-08-19T01:34:18;101486.13;;;12.22;58.89
60087;BME280;45960;53.630;55.972;2022-08-19T01:35:20;101494.94;;;12.24;58.91
60087;BME280;45960;53.630;55.972;2022-08-19T01:36:22;101490.63;;;12.22;59.04
60087;BME280;45960;53.630;55.972;2022-08-19T01:37:24;101488.88;;;12.21;59.03
60087;BME280;45960;53.630;55.972;2022-08-19T01:38:26;101491.66;;;12.19;59.16
60087;BME280;45960;53.630;55.972;2022-08-19T01:39:32;101502.38;;;12.19;59.14
60087;BME280;45960;53.630;55.972;2022-08-19T01:40:33;101500.59;;;12.18;59.04
60087;BME280;45960;53.630;55.972;2022-08-19T01:41:35;101508.66;;;12.18;59.07
60087;BME280;45960;53.630;55.972;2022-08-19T01:42:36;101511.31;;;12.18;59.15
60087;BME280;45960;53.630;55.972;2022-08-19T01:43:37;101514.81;;;12.20;59.12
60087;BME280;45960;53.630;55.972;2022-08-19T01:44:39;101513.09;;;12.19;59.12
60087;BME280;45960;53.630;55.972;2022-08-19T01:45:41;101505.91;;;12.20;59.22
60087;BME280;45960;53.630;55.972;2022-08-19T01:46:42;101505.09;;;12.18;59.21
60087;BME280;45960;53.630;55.972;2022-08-19T01:47:44;101514.16;;;12.15;59.40
60087;BME280;45960;53.630;55.972;2022-08-19T01:48:45;101514.28;;;12.14;59.32
60087;BME280;45960;53.630;55.972;2022-08-19T01:49:46;101519.53;;;12.15;59.38
60087;BME280;45960;53.630;55.972;2022-08-19T01:50:47;101521.34;;;12.15;59.45
60087;BME280;45960;53.630;55.972;2022-08-19T01:51:51;101518.59;;;12.16;59.38
60087;BME280;45960;53.630;55.972;2022-08-19T01:52:53;101523.97;;;12.16;59.43
60087;BME280;45960;53.630;55.972;2022-08-19T01:53:54;101522.22;;;12.15;59.45
60087;BME280;45960;53.630;55.972;2022-08-19T01:54:55;101529.31;;;12.16;59.36
60087;BME280;45960;53.630;55.972;2022-08-19T01:55:56;101528.38;;;12.17;59.28
60087;BME280;45960;53.630;55.972;2022-08-19T01:56:59;101532.75;;;12.18;59.10
60087;BME280;45960;53.630;55.972;2022-08-19T01:58:01;101530.88;;;12.20;59.07
60087;BME280;45960;53.630;55.972;2022-08-19T01:59:05;101541.59;;;12.20;59.20
60087;BME280;45960;53.630;55.972;2022-08-19T02:00:10;101531.84;;;12.19;59.09
60087;BME280;45960;53.630;55.972;2022-08-19T02:01:14;101538.00;;;12.21;59.19
60087;BME280;45960;53.630;55.972;2022-08-19T02:02:14;101536.16;;;12.22;59.28
60087;BME280;45960;53.630;55.972;2022-08-19T02:03:15;101534.34;;;12.22;59.25
60087;BME280;45960;53.630;55.972;2022-08-19T02:04:17;101530.72;;;12.23;59.23
60087;BME280;45960;53.630;55.972;2022-08-19T02:05:17;101539.53;;;12.25;59.13
60087;BME280;45960;53.630;55.972;2022-08-19T02:06:19;101531.50;;;12.25;59.13
60087;BME280;45960;53.630;55.972;2022-08-19T02:07:20;101530.56;;;12.26;59.06
60087;BME280;45960;53.630;55.972;2022-08-19T02:08:25;101529.53;;;12.29;59.00
60087;BME280;45960;53.630;55.972;2022-08-19T02:09:26;101533.88;;;12.31;58.83
60087;BME280;45960;53.630;55.972;2022-08-19T02:10:27;101534.66;;;12.34;58.72
60087;BME280;45960;53.630;55.972;2022-08-19T02:11:29;101535.44;;;12.36;58.53
60087;BME280;45960;53.630;55.972;2022-08-19T02:12:32;101538.91;;;12.38;58.50
60087;BME280;45960;53.630;55.972;2022-08-19T02:13:33;101537.00;;;12.40;58.41
60087;BME280;45960;53.630;55.972;2022-08-19T02:14:54;101536.94;;;12.41;58.45
60087;BME280;45960;53.630;55.972;2022-08-19T02:15:55;101543.06;;;12.43;58.35
60087;BME280;45960;53.630;55.972;2022-08-19T02:16:56;101549.16;;;12.47;58.22
60087;BME280;45960;53.630;55.972;2022-08-19T02:17:56;101544.47;;;12.50;58.11
60087;BME280;45960;53.630;55.972;2022-08-19T02:18:57;101542.66;;;12.51;58.15
60087;BME280;45960;53.630;55.972;2022-08-19T02:20:00;101552.34;;;12.53;58.21
60087;BME280;45960;53.630;55.972;2022-08-19T02:21:02;101550.38;;;12.57;58.20
60087;BME280;45960;53.630;55.972;2022-08-19T02:22:02;101555.56;;;12.60;58.29
60087;BME280;45960;53.630;55.972;2022-08-19T02:23:04;101552.81;;;12.62;58.27
60087;BME280;45960;53.630;55.972;2022-08-19T02:24:05;101560.69;;;12.65;58.20
60087;BME280;45960;53.630;55.972;2022-08-19T02:25:06;101554.38;;;12.66;58.04
60087;BME280;45960;53.630;55.972;2022-08-19T02:26:07;101555.09;;;12.69;58.04
60087;BME280;45960;53.630;55.972;2022-08-19T02:27:08;101569.28;;;12.71;57.89
60087;BME280;45960;53.630;55.972;2022-08-19T02:28:09;101574.50;;;12.74;57.62
60087;BME280;45960;53.630;55.972;2022-08-19T02:29:10;101569.13;;;12.74;57.60
60087;BME280;45960;53.630;55.972;2022-08-19T02:30:12;101572.56;;;12.76;57.54
60087;BME280;45960;53.630;55.972;2022-08-19T02:31:15;101574.31;;;12.77;57.45
60087;BME280;45960;53.630;55.972;2022-08-19T02:32:16;101570.50;;;12.82;57.30
60087;BME280;45960;53.630;55.972;2022-08-19T02:33:18;101572.28;;;12.83;57.25
60087;BME280;45960;53.630;55.972;2022-08-19T02:34:19;101574.78;;;12.86;57.15
60087;BME280;45960;53.630;55.972;2022-08-19T02:35:20;101570.19;;;12.88;57.14
60087;BME280;45960;53.630;55.972;2022-08-19T02:36:21;101569.16;;;12.90;56.99
60087;BME280;45960;53.630;55.972;2022-08-19T02:37:22;101568.13;;;12.93;56.99
60087;BME280;45960;53.630;55.972;2022-08-19T02:38:42;101569.78;;;12.95;56.90
60087;BME280;45960;53.630;55.972;2022-08-19T02:39:44;101567.78;;;12.99;56.84
60087;BME280;45960;53.630;55.972;2022-08-19T02:40:48;101565.88;;;13.01;56.76
60087;BME280;45960;53.630;55.972;2022-08-19T02:41:50;101572.91;;;13.04;56.80
60087;BME280;45960;53.630;55.972;2022-08-19T02:42:52;101576.38;;;13.06;56.74
60087;BME280;45960;53.630;55.972;2022-08-19T02:43:54;101574.38;;;13.09;56.55
60087;BME280;45960;53.630;55.972;2022-08-19T02:44:55;101569.69;;;13.13;56.44
60087;BME280;45960;53.630;55.972;2022-08-19T02:45:56;101575.78;;;13.16;56.33
60087;BME280;45960;53.630;55.972;2022-08-19T02:46:56;101579.22;;;13.18;56.24
60087;BME280;45960;53.630;55.972;2022-08-19T02:47:57;101579.06;;;13.21;56.13
60087;BME280;45960;53.630;55.972;2022-08-19T02:49:05;101581.66;;;13.23;56.03
60087;BME280;45960;53.630;55.972;2022-08-19T02:50:06;101584.13;;;13.28;56.05
60087;BME280;45960;53.630;55.972;2022-08-19T02:51:08;101578.59;;;13.31;55.96
60087;BME280;45960;53.630;55.972;2022-08-19T02:52:08;101588.31;;;13.33;55.78
60087;BME280;45960;53.630;55.972;2022-08-19T02:53:10;101588.13;;;13.36;55.69
60087;BME280;45960;53.630;55.972;2022-08-19T02:54:11;101586.13;;;13.40;55.74
60087;BME280;45960;53.630;55.972;2022-08-19T02:55:13;101588.63;;;13.43;55.77
60087;BME280;45960;53.630;55.972;2022-08-19T02:56:14;101591.25;;;13.45;55.82
60087;BME280;45960;53.630;55.972;2022-08-19T02:57:15;101588.47;;;13.46;55.63
60087;BME280;45960;53.630;55.972;2022-08-19T02:58:16;101593.66;;;13.49;55.52
60087;BME280;45960;53.630;55.972;2022-08-19T02:59:17;101593.47;;;13.52;55.60
60087;BME280;45960;53.630;55.972;2022-08-19T03:00:18;101596.94;;;13.54;55.40
60087;BME280;45960;53.630;55.972;2022-08-19T03:01:20;101596.78;;;13.57;55.17
60087;BME280;45960;53.630;55.972;2022-08-19T03:02:21;101592.97;;;13.61;54.90
60087;BME280;45960;53.630;55.972;2022-08-19T03:03:22;101592.00;;;13.62;54.63
60087;BME280;45960;53.630;55.972;2022-08-19T03:04:23;101598.06;;;13.66;54.49
60087;BME280;45960;53.630;55.972;2022-08-19T03:05:24;101595.13;;;13.71;54.35
60087;BME280;45960;53.630;55.972;2022-08-19T03:06:26;101593.22;;;13.73;54.27
60087;BME280;45960;53.630;55.972;2022-08-19T03:07:27;101594.88;;;13.75;54.04
60087;BME280;45960;53.630;55.972;2022-08-19T03:08:28;101600.06;;;13.78;53.72
60087;BME280;45960;53.630;55.972;2022-08-19T03:09:28;101595.38;;;13.82;53.59
60087;BME280;45960;53.630;55.972;2022-08-19T03:10:30;101600.56;;;13.85;53.48
60087;BME280;45960;53.630;55.972;2022-08-19T03:11:31;101603.06;;;13.88;53.21
60087;BME280;45960;53.630;55.972;2022-08-19T03:12:34;101597.63;;;13.90;52.99
60087;BME280;45960;53.630;55.972;2022-08-19T03:13:36;101593.88;;;13.92;52.84
60087;BME280;45960;53.630;55.972;2022-08-19T03:14:36;101598.13;;;13.96;52.86
60087;BME280;45960;53.630;55.972;2022-08-19T03:15:42;101592.56;;;13.99;52.79
60087;BME280;45960;53.630;55.972;2022-08-19T03:16:45;101596.03;;;14.01;52.90
60087;BME280;45960;53.630;55.972;2022-08-19T03:17:46;101597.56;;;14.05;52.84
60087;BME280;45960;53.630;55.972;2022-08-19T03:18:47;101601.03;;;14.07;52.38
60087;BME280;45960;53.630;55.972;2022-08-19T03:19:47;101599.13;;;14.09;52.28
60087;BME280;45960;53.630;55.972;2022-08-19T03:20:49;101596.25;;;14.13;52.32
60087;BME280;45960;53.630;55.972;2022-08-19T03:21:50;101597.78;;;14.17;52.44
60087;BME280;45960;53.630;55.972;2022-08-19T03:22:51;101602.06;;;14.21;52.52
60087;BME280;45960;53.630;55.972;2022-08-19T03:23:56;101591.13;;;14.24;52.51
60087;BME280;45960;53.630;55.972;2022-08-19T03:24:57;101600.81;;;14.26;52.54
60087;BME280;45960;53.630;55.972;2022-08-19T03:26:02;101602.34;;;14.30;52.44
60087;BME280;45960;53.630;55.972;2022-08-19T03:27:05;101595.94;;;14.33;52.62
60087;BME280;45960;53.630;55.972;2022-08-19T03:28:05;101600.25;;;14.36;52.70
60087;BME280;45960;53.630;55.972;2022-08-19T03:29:08;101605.38;;;14.40;52.67
60087;BME280;45960;53.630;55.972;2022-08-19T03:30:10;101597.13;;;14.43;52.71
60087;BME280;45960;53.630;55.972;2022-08-19T03:31:12;101600.59;;;14.45;52.59
60087;BME280;45960;53.630;55.972;2022-08-19T03:32:14;101605.78;;;14.48;52.57
60087;BME280;45960;53.630;55.972;2022-08-19T03:33:15;101607.34;;;14.52;52.50
60087;BME280;45960;53.630;55.972;2022-08-19T03:34:17;101601.78;;;14.55;52.25
60087;BME280;45960;53.630;55.972;2022-08-19T03:35:18;101613.22;;;14.59;52.19
60087;BME280;45960;53.630;55.972;2022-08-19T03:36:24;101609.38;;;14.63;52.13
60087;BME280;45960;53.630;55.972;2022-08-19T03:37:26;101610.06;;;14.67;51.97
60087;BME280;45960;53.630;55.972;2022-08-19T03:38:27;101609.84;;;14.70;51.95
60087;BME280;45960;53.630;55.972;2022-08-19T03:39:28;101611.41;;;14.74;52.06
60087;BME280;45960;53.630;55.972;2022-08-19T03:40:29;101616.59;;;14.77;51.84
60087;BME280;45960;53.630;55.972;2022-08-19T03:41:32;101623.50;;;14.81;51.84
60087;BME280;45960;53.630;55.972;2022-08-19T03:42:32;101623.31;;;14.84;51.81
60087;BME280;45960;53.630;55.972;2022-08-19T03:43:34;101625.84;;;14.87;51.83
60087;BME280;45960;53.630;55.972;2022-08-19T03:44:35;101625.66;;;14.90;51.79
60087;BME280;45960;53.630;55.972;2022-08-19T03:45:38;101617.41;;;14.93;51.63
60087;BME280;45960;53.630;55.972;2022-08-19T03:46:38;101632.38;;;14.97;51.61
60087;BME280;45960;53.630;55.972;2022-08-19T03:47:39;101625.94;;;15.00;51.38
60087;BME280;45960;53.630;55.972;2022-08-19T03:48:41;101626.59;;;15.04;51.47
60087;BME280;45960;53.630;55.972;2022-08-19T03:49:42;101622.84;;;15.06;51.27
60087;BME280;45960;53.630;55.972;2022-08-19T03:50:43;101627.97;;;15.11;51.03
60087;BME280;45960;53.630;55.972;2022-08-19T03:51:45;101619.69;;;15.14;50.75
60087;BME280;45960;53.630;55.972;2022-08-19T03:52:50;101624.88;;;15.17;50.61
60087;BME280;45960;53.630;55.972;2022-08-19T03:53:52;101626.44;;;15.21;50.52
60087;BME280;45960;53.630;55.972;2022-08-19T03:54:54;101626.25;;;15.24;50.41
60087;BME280;45960;53.630;55.972;2022-08-19T03:55:55;101626.03;;;15.27;50.13
60087;BME280;45960;53.630;55.972;2022-08-19T03:56:56;101632.09;;;15.31;49.95
60087;BME280;45960;53.630;55.972;2022-08-19T03:57:57;101630.16;;;15.33;49.80
60087;BME280;45960;53.630;55.972;2022-08-19T03:58:59;101623.72;;;15.35;49.38
60087;BME280;45960;53.630;55.972;2022-08-19T04:00:00;101631.59;;;15.38;49.32
60087;BME280;45960;53.630;55.972;2022-08-19T04:01:01;101632.19;;;15.43;49.11
60087;BME280;45960;53.630;55.972;2022-08-19T04:02:06;101631.97;;;15.47;49.32
60087;BME280;45960;53.630;55.972;2022-08-19T04:03:09;101638.03;;;15.50;49.29
60087;BME280;45960;53.630;55.972;2022-08-19T04:04:10;101638.69;;;15.54;49.24
60087;BME280;45960;53.630;55.972;2022-08-19T04:05:11;101639.38;;;15.57;49.12
60087;BME280;45960;53.630;55.972;2022-08-19T04:06:14;101640.03;;;15.61;49.17
60087;BME280;45960;53.630;55.972;2022-08-19T04:07:16;101642.53;;;15.64;49.24
60087;BME280;45960;53.630;55.972;2022-08-19T04:08:18;101641.38;;;15.68;49.08
60087;BME280;45960;53.630;55.972;2022-08-19T04:09:23;101646.59;;;15.71;48.99
60087;BME280;45960;53.630;55.972;2022-08-19T04:10:24;101646.41;;;15.74;48.76
60087;BME280;45960;53.630;55.972;2022-08-19T04:11:26;101644.34;;;15.78;48.57
60087;BME280;45960;53.630;55.972;2022-08-19T04:12:27;101648.69;;;15.80;48.24
60087;BME280;45960;53.630;55.972;2022-08-19T04:13:28;101644.91;;;15.83;48.00
60087;BME280;45960;53.630;55.972;2022-08-19T04:14:29;101644.72;;;15.86;47.65
60087;BME280;45960;53.630;55.972;2022-08-19T04:15:31;101644.50;;;15.89;47.80
60087;BME280;45960;53.630;55.972;2022-08-19T04:16:36;101642.47;;;15.93;47.87
60087;BME280;45960;53.630;55.972;2022-08-19T04:17:37;101646.72;;;15.97;47.73
60087;BME280;45960;53.630;55.972;2022-08-19T04:18:38;101640.25;;;15.99;47.48
60087;BME280;45960;53.630;55.972;2022-08-19T04:19:40;101640.91;;;16.03;47.35
60087;BME280;45960;53.630;55.972;2022-08-19T04:20:43;101640.69;;;16.06;47.07
60087;BME280;45960;53.630;55.972;2022-08-19T04:21:46;101647.59;;;16.10;46.75
60087;BME280;45960;53.630;55.972;2022-08-19T04:22:48;101647.41;;;16.13;46.67
60087;BME280;45960;53.630;55.972;2022-08-19T04:23:48;101647.22;;;16.16;46.59
60087;BME280;45960;53.630;55.972;2022-08-19T04:24:49;101652.41;;;16.19;46.68
60087;BME280;45960;53.630;55.972;2022-08-19T04:25:50;101652.19;;;16.22;46.73
60087;BME280;45960;53.630;55.972;2022-08-19T04:26:51;101659.09;;;16.26;46.54
60087;BME280;45960;53.630;55.972;2022-08-19T04:27:52;101658.88;;;16.29;46.23
60087;BME280;45960;53.630;55.972;2022-08-19T04:28:53;101653.28;;;16.32;46.02
60087;BME280;45960;53.630;55.972;2022-08-19T04:29:54;101658.50;;;16.36;45.76
60087;BME280;45960;53.630;55.972;2022-08-19T04:30:55;101659.16;;;16.39;45.95
60087;BME280;45960;53.630;55.972;2022-08-19T04:31:56;101649.97;;;16.42;45.80
60087;BME280;45960;53.630;55.972;2022-08-19T04:32:57;101647.94;;;16.45;45.58
60087;BME280;45960;53.630;55.972;2022-08-19T04:33:59;101652.13;;;16.49;45.34
60087;BME280;45960;53.630;55.972;2022-08-19T04:35:00;101660.03;;;16.52;45.33
60087;BME280;45960;53.630;55.972;2022-08-19T04:36:01;101660.69;;;16.56;45.26
60087;BME280;45960;53.630;55.972;2022-08-19T04:37:04;101655.94;;;16.60;45.13
60087;BME280;45960;53.630;55.972;2022-08-19T04:38:13;101659.28;;;16.63;45.09
60087;BME280;45960;53.630;55.972;2022-08-19T04:39:15;101662.75;;;16.65;44.98
60087;BME280;45960;53.630;55.972;2022-08-19T04:40:16;101656.19;;;16.69;44.92
60087;BME280;45960;53.630;55.972;2022-08-19T04:41:35;101654.91;;;16.75;44.82
60087;BME280;45960;53.630;55.972;2022-08-19T04:42:55;101657.28;;;16.80;44.65
60087;BME280;45960;53.630;55.972;2022-08-19T04:43:56;101660.75;;;16.82;44.54
60087;BME280;45960;53.630;55.972;2022-08-19T04:44:57;101654.16;;;16.86;44.38
60087;BME280;45960;53.630;55.972;2022-08-19T04:46:04;101648.56;;;16.89;44.12
60087;BME280;45960;53.630;55.972;2022-08-19T04:47:05;101652.88;;;16.91;44.16
60087;BME280;45960;53.630;55.972;2022-08-19T04:48:06;101661.63;;;16.95;43.96
60087;BME280;45960;53.630;55.972;2022-08-19T04:49:07;101661.41;;;16.98;43.79
60087;BME280;45960;53.630;55.972;2022-08-19T04:50:09;101655.78;;;17.01;43.76
60087;BME280;45960;53.630;55.972;2022-08-19T04:51:12;101667.16;;;17.06;43.43
60087;BME280;45960;53.630;55.972;2022-08-19T04:52:13;101662.47;;;17.08;43.22
60087;BME280;45960;53.630;55.972;2022-08-19T04:53:14;101662.28;;;17.11;42.81
60087;BME280;45960;53.630;55.972;2022-08-19T04:54:16;101666.47;;;17.15;42.45
60087;BME280;45960;53.630;55.972;2022-08-19T04:55:17;101664.53;;;17.17;41.89
60087;BME280;45960;53.630;55.972;2022-08-19T04:56:20;101665.28;;;17.19;41.58
60087;BME280;45960;53.630;55.972;2022-08-19T04:57:26;101659.69;;;17.22;41.92
60087;BME280;45960;53.630;55.972;2022-08-19T04:58:27;101670.28;;;17.26;41.83
60087;BME280;45960;53.630;55.972;2022-08-19T04:59:28;101671.88;;;17.28;41.31
60087;BME280;45960;53.630;55.972;2022-08-19T05:00:29;101665.38;;;17.31;41.34
60087;BME280;45960;53.630;55.972;2022-08-19T05:01:30;101665.06;;;17.35;41.47
60087;BME280;45960;53.630;55.972;2022-08-19T05:02:33;101672.84;;;17.40;41.49
60087;BME280;45960;53.630;55.972;2022-08-19T05:03:34;101678.03;;;17.43;41.47
60087;BME280;45960;53.630;55.972;2022-08-19T05:04:35;101676.09;;;17.45;41.48
60087;BME280;45960;53.630;55.972;2022-08-19T05:05:42;101674.00;;;17.49;41.39
60087;BME280;45960;53.630;55.972;2022-08-19T05:06:43;101677.34;;;17.52;41.30
60087;BME280;45960;53.630;55.972;2022-08-19T05:07:43;101678.88;;;17.56;41.27
60087;BME280;45960;53.630;55.972;2022-08-19T05:08:44;101667.84;;;17.59;41.16
60087;BME280;45960;53.630;55.972;2022-08-19T05:09:46;101668.47;;;17.63;41.12
60087;BME280;45960;53.630;55.972;2022-08-19T05:10:48;101678.94;;;17.67;41.15
60087;BME280;45960;53.630;55.972;2022-08-19T05:11:49;101671.47;;;17.71;41.16
60087;BME280;45960;53.630;55.972;2022-08-19T05:12:51;101669.41;;;17.75;41.15
60087;BME280;45960;53.630;55.972;2022-08-19T05:13:52;101670.06;;;17.78;40.58
60087;BME280;45960;53.630;55.972;2022-08-19T05:14:53;101677.09;;;17.81;39.74
60087;BME280;45960;53.630;55.972;2022-08-19T05:15:56;101668.88;;;17.82;39.90
60087;BME280;45960;53.630;55.972;2022-08-19T05:16:57;101677.63;;;17.86;39.82
60087;BME280;45960;53.630;55.972;2022-08-19T05:17:58;101673.81;;;17.88;40.13
60087;BME280;45960;53.630;55.972;2022-08-19T05:19:17;101672.50;;;17.94;40.21
60087;BME280;45960;53.630;55.972;2022-08-19T05:20:37;101674.03;;;17.98;40.02